Junction City, Wisconsin
Current Conditions -  °F | °C
As of 11:15 AM on Sunday 21 Dec 2014 (Local Time) from KSTE Reporting Station
Haze Haze  
Wind Chill: 22°   Ceiling: 500
Heat Index: 31°   Visibility: 1.7mi
Dew Point: 30°   Wind: 9mph
Humidity: 96%   Direction: 150°SSE
Pressure: 30.02"   Gusts: NA
Location:  44.59°N, 89.77°W
Report Text: KSTE 211715Z AUTO 15008KT 1 3/4SM BR OVC005 M01/M01 A3002 RMK AO2 T10081013
Loading
Personal Weather Stations






























Interactive Weather Map New forecast layout! Learn more

10-Day Weather Forecast

Advertisements
Track Severe Weather on mobile